Andrews Bridge, Pennsylvania
Current Conditions -  °F | °C
As of 9:35 PM on Wednesday 26 Nov 2014 (Local Time) from KMQS Reporting Station
Light Snow Light Snow  
Wind Chill: 24°   Ceiling: Unl
Heat Index: 32°   Visibility: 8mi
Dew Point: 32°   Wind: 10mph
Humidity: 100%   Direction: 320°NW
Pressure: 29.88"   Gusts: NA
Location:  39.9118°N, 76.0265°W
Report Text: KMQS 270235Z AUTO 32009KT 8SM -SN CLR 00/00 A2988 RMK AO2
Loading
Personal Weather Stations






























Interactive Weather Map New forecast layout! Learn more

10-Day Weather Forecast

Advertisements
Track Severe Weather on mobile